createdAt,value
2022-12-26T00:00:36.553Z,8.80
2022-12-26T00:03:03.402Z,8.57
2022-12-26T00:05:34.648Z,10.38
2022-12-26T00:08:01.269Z,11.27
2022-12-26T00:10:27.895Z,12.52
2022-12-26T00:12:54.518Z,11.27
2022-12-26T00:15:41.693Z,11.73
2022-12-26T00:18:08.557Z,9.25
2022-12-26T00:20:35.170Z,9.50
2022-12-26T00:23:01.799Z,10.35
2022-12-26T00:25:28.421Z,12.10
2022-12-26T00:27:55.215Z,8.48
2022-12-26T00:30:22.670Z,12.57
2022-12-26T00:32:49.263Z,14.18
2022-12-26T00:35:15.884Z,10.70
2022-12-26T00:37:42.539Z,13.88
2022-12-26T00:40:09.985Z,11.15
2022-12-26T00:42:36.573Z,12.07
2022-12-26T00:45:03.420Z,13.57
2022-12-26T00:47:30.705Z,14.07
2022-12-26T00:50:12.630Z,16.70
2022-12-26T00:52:42.486Z,15.90
2022-12-26T00:55:09.559Z,17.75
2022-12-26T00:57:36.231Z,18.85
2022-12-26T01:00:03.801Z,17.23
2022-12-26T01:02:39.600Z,18.05
2022-12-26T01:05:11.381Z,17.33
2022-12-26T01:08:22.369Z,19.20
2022-12-26T01:10:28.647Z,22.08
2022-12-26T01:12:55.572Z,25.27
2022-12-26T01:15:22.172Z,18.00
2022-12-26T01:17:48.968Z,22.08
2022-12-26T01:20:16.502Z,21.98
2022-12-26T01:22:43.140Z,22.08
2022-12-26T01:25:11.536Z,20.15
2022-12-26T01:27:38.591Z,24.52
2022-12-26T01:30:06.193Z,19.73
2022-12-26T01:32:32.818Z,20.08
2022-12-26T01:34:59.431Z,18.65
2022-12-26T01:37:26.290Z,17.02
2022-12-26T01:39:53.008Z,20.77
2022-12-26T01:42:22.411Z,23.25
2022-12-26T01:45:22.881Z,16.55
2022-12-26T01:48:12.473Z,17.00
2022-12-26T01:50:54.795Z,20.73
2022-12-26T01:53:28.846Z,13.63
2022-12-26T01:56:05.719Z,11.43
2022-12-26T01:58:37.080Z,13.73
2022-12-26T02:01:07.898Z,12.70
2022-12-26T02:03:55.963Z,10.70
2022-12-26T02:06:22.755Z,10.73
2022-12-26T02:08:49.442Z,10.15
2022-12-26T02:11:34.725Z,13.25
2022-12-26T02:14:02.300Z,11.68
2022-12-26T02:16:30.212Z,12.23
2022-12-26T02:18:56.917Z,13.95
2022-12-26T02:21:53.487Z,17.83
2022-12-26T02:24:47.308Z,19.88
2022-12-26T02:27:30.322Z,22.60
2022-12-26T02:30:05.723Z,26.65
2022-12-26T02:33:11.524Z,26.67
2022-12-26T02:36:15.171Z,33.87
2022-12-26T02:39:44.297Z,25.80
2022-12-26T02:42:24.128Z,25.77
2022-12-26T02:45:23.271Z,15.40
2022-12-26T02:48:17.141Z,15.50
2022-12-26T02:51:28.647Z,11.15
2022-12-26T02:54:22.813Z,8.30
2022-12-26T02:57:22.212Z,7.20
2022-12-26T03:00:15.901Z,7.63
2022-12-26T03:03:37.002Z,7.43
2022-12-26T03:06:50.425Z,10.80
2022-12-26T03:09:49.378Z,15.18
2022-12-26T03:12:37.638Z,11.50
2022-12-26T03:15:08.635Z,16.30
2022-12-26T03:17:41.303Z,19.42
2022-12-26T03:20:19.654Z,16.73
2022-12-26T03:22:57.403Z,17.02
2022-12-26T03:25:54.469Z,21.48
2022-12-26T03:28:22.951Z,20.20
2022-12-26T03:30:49.977Z,20.60
2022-12-26T03:33:41.156Z,24.25
2022-12-26T03:36:28.963Z,29.02
2022-12-26T03:39:14.379Z,30.40
2022-12-26T03:45:18.572Z,25.63
2022-12-26T03:48:38.294Z,25.70
2022-12-26T03:51:34.052Z,29.75
2022-12-26T03:57:22.830Z,30.02
2022-12-26T04:00:16.911Z,32.80
2022-12-26T04:03:05.983Z,34.58
2022-12-26T04:05:56.057Z,42.17
2022-12-26T04:08:55.679Z,35.38
2022-12-26T04:11:41.615Z,33.90
2022-12-26T04:14:36.578Z,41.70
2022-12-26T04:17:58.728Z,39.17
2022-12-26T04:20:29.681Z,43.00
2022-12-26T04:23:23.069Z,42.05
2022-12-26T04:26:26.108Z,32.88
2022-12-26T04:29:11.672Z,29.77
2022-12-26T04:32:15.191Z,33.00
2022-12-26T04:35:15.858Z,20.98
2022-12-26T04:38:03.888Z,22.77
2022-12-26T04:40:55.954Z,21.15
2022-12-26T04:43:48.041Z,18.70
2022-12-26T04:46:21.412Z,20.15
2022-12-26T04:49:08.733Z,26.33
2022-12-26T04:51:36.487Z,30.52
2022-12-26T04:54:04.383Z,28.73
2022-12-26T04:56:31.219Z,34.17
2022-12-26T04:58:58.320Z,42.53
2022-12-26T05:01:43.680Z,30.25
2022-12-26T05:04:33.614Z,29.50
2022-12-26T05:07:20.945Z,34.83
2022-12-26T05:09:53.243Z,41.55
2022-12-26T05:12:20.055Z,33.08
2022-12-26T05:14:46.764Z,25.05
2022-12-26T05:17:32.825Z,31.42
2022-12-26T05:20:17.812Z,33.58
2022-12-26T05:23:04.229Z,40.17
2022-12-26T05:25:53.419Z,35.75
2022-12-26T05:28:39.184Z,33.33
2022-12-26T05:31:06.405Z,47.38
2022-12-26T05:33:51.689Z,35.47
2022-12-26T05:36:21.115Z,41.17
2022-12-26T05:38:51.305Z,38.47
2022-12-26T05:41:18.235Z,39.88
2022-12-26T05:43:44.916Z,34.95
2022-12-26T05:46:11.522Z,36.58
2022-12-26T05:48:38.252Z,40.45
2022-12-26T05:51:05.096Z,40.42
2022-12-26T05:53:33.347Z,34.28
2022-12-26T05:56:10.763Z,41.83
2022-12-26T05:58:37.495Z,34.17
2022-12-26T06:01:17.653Z,26.58
2022-12-26T06:03:48.054Z,25.63
2022-12-26T06:06:15.181Z,22.52
2022-12-26T06:08:41.902Z,23.33
2022-12-26T06:11:13.337Z,24.17
2022-12-26T06:13:40.772Z,24.05
2022-12-26T06:16:10.018Z,22.05
2022-12-26T06:18:37.079Z,23.27
2022-12-26T06:21:08.403Z,22.85
2022-12-26T06:23:36.151Z,24.27
2022-12-26T06:26:03.796Z,27.00
2022-12-26T06:28:30.996Z,24.67
2022-12-26T06:31:08.395Z,27.58
2022-12-26T06:33:35.044Z,30.35
2022-12-26T06:36:16.083Z,30.83
2022-12-26T06:38:43.516Z,34.53
2022-12-26T06:41:13.186Z,30.00
2022-12-26T06:43:40.067Z,36.42
2022-12-26T06:46:09.760Z,35.15
2022-12-26T06:48:39.856Z,26.90
2022-12-26T06:51:10.654Z,26.45
2022-12-26T06:53:37.772Z,26.67
2022-12-26T06:56:12.784Z,25.27
2022-12-26T07:01:16.616Z,25.10
2022-12-26T07:03:50.758Z,25.02
2022-12-26T07:08:47.912Z,22.02
2022-12-26T07:11:16.150Z,23.95
2022-12-26T07:13:43.571Z,21.75
2022-12-26T07:16:13.568Z,20.45
2022-12-26T07:18:41.055Z,24.13
2022-12-26T07:21:10.012Z,19.48
2022-12-26T07:23:37.055Z,21.35
2022-12-26T07:26:04.504Z,22.92
2022-12-26T07:28:31.560Z,19.73
2022-12-26T07:31:00.207Z,15.65
2022-12-26T07:33:28.120Z,15.30
2022-12-26T07:35:58.759Z,13.75
2022-12-26T07:38:25.539Z,16.23
2022-12-26T07:40:54.504Z,18.67
2022-12-26T07:43:21.088Z,15.20
2022-12-26T07:45:50.525Z,14.25
2022-12-26T07:48:17.441Z,12.07
2022-12-26T07:50:47.069Z,16.15
2022-12-26T07:53:14.887Z,12.10
2022-12-26T07:55:41.749Z,12.73
2022-12-26T07:58:08.653Z,11.45
2022-12-26T08:00:35.333Z,10.80
2022-12-26T08:03:08.576Z,12.60
2022-12-26T08:05:35.409Z,16.23
2022-12-26T08:08:02.209Z,13.52
2022-12-26T08:10:28.935Z,13.30
2022-12-26T08:12:55.602Z,12.23
2022-12-26T08:15:22.271Z,10.80
2022-12-26T08:17:48.898Z,13.20
2022-12-26T08:20:15.694Z,8.40
2022-12-26T08:22:42.669Z,9.88
2022-12-26T08:25:10.005Z,13.02
2022-12-26T08:27:36.703Z,10.35
2022-12-26T08:30:04.727Z,12.13
2022-12-26T08:32:31.354Z,9.50
2022-12-26T08:34:57.958Z,18.77
2022-12-26T08:37:24.598Z,20.80
2022-12-26T08:39:53.420Z,12.50
2022-12-26T08:42:21.560Z,10.68
2022-12-26T08:44:48.892Z,14.05
2022-12-26T08:47:15.800Z,8.48
2022-12-26T08:49:42.768Z,9.38
2022-12-26T08:52:09.576Z,7.55
2022-12-26T08:54:36.342Z,8.73
2022-12-26T08:57:03.259Z,10.88
2022-12-26T08:59:29.894Z,7.90
2022-12-26T09:01:56.650Z,10.20
2022-12-26T09:04:23.279Z,8.80
2022-12-26T09:06:49.959Z,12.65
2022-12-26T09:09:16.667Z,13.98
2022-12-26T09:11:43.868Z,12.02
2022-12-26T09:14:10.896Z,13.27
2022-12-26T09:16:49.649Z,11.05
2022-12-26T09:19:18.503Z,10.02
2022-12-26T09:21:46.329Z,12.85
2022-12-26T09:24:16.086Z,11.98
2022-12-26T09:26:43.835Z,19.48
2022-12-26T09:29:13.815Z,14.82
2022-12-26T09:31:40.534Z,11.38
2022-12-26T09:34:07.805Z,9.48
2022-12-26T09:36:39.967Z,11.65
2022-12-26T09:39:07.090Z,8.43
2022-12-26T09:41:33.917Z,13.48
2022-12-26T09:44:16.281Z,10.65
2022-12-26T09:47:05.333Z,9.52
2022-12-26T09:49:37.967Z,14.43
2022-12-26T09:52:18.586Z,9.50
2022-12-26T09:54:52.804Z,9.35
2022-12-26T09:57:27.413Z,8.32
2022-12-26T09:59:58.077Z,8.88
2022-12-26T10:02:26.175Z,12.55
2022-12-26T10:04:54.701Z,12.88
2022-12-26T10:07:43.982Z,12.52
2022-12-26T10:10:33.027Z,14.57
2022-12-26T10:13:22.445Z,13.40
2022-12-26T10:15:49.039Z,13.02
2022-12-26T10:18:31.167Z,11.93
2022-12-26T10:21:09.878Z,11.32
2022-12-26T10:23:45.322Z,11.05
2022-12-26T10:26:20.205Z,9.93
2022-12-26T10:28:59.817Z,10.60
2022-12-26T10:31:46.168Z,9.27
2022-12-26T10:34:23.969Z,11.13
2022-12-26T10:36:57.086Z,10.93
2022-12-26T10:39:57.979Z,9.90
2022-12-26T10:42:42.464Z,10.63
2022-12-26T10:45:18.337Z,11.00
2022-12-26T10:47:50.952Z,12.65
2022-12-26T10:50:28.043Z,12.50
2022-12-26T10:52:55.942Z,11.93
2022-12-26T10:55:31.572Z,13.90
2022-12-26T10:58:05.509Z,15.57
2022-12-26T11:00:34.003Z,11.65
2022-12-26T11:03:05.672Z,12.10
2022-12-26T11:08:40.876Z,14.43
2022-12-26T11:11:18.227Z,14.23
2022-12-26T11:14:01.315Z,14.52
2022-12-26T11:16:35.814Z,17.65
2022-12-26T11:19:03.030Z,18.38
2022-12-26T11:21:34.816Z,17.95
2022-12-26T11:24:15.675Z,16.50
2022-12-26T11:26:42.443Z,14.23
2022-12-26T11:29:21.088Z,17.20
2022-12-26T11:31:57.721Z,15.13
2022-12-26T11:34:38.430Z,14.32
2022-12-26T11:37:06.695Z,14.20
2022-12-26T11:39:37.790Z,17.60
2022-12-26T11:42:20.541Z,18.27
2022-12-26T11:44:52.392Z,18.42
2022-12-26T11:47:29.746Z,18.75
2022-12-26T11:50:06.426Z,17.77
2022-12-26T11:52:55.200Z,22.40
2022-12-26T11:55:35.599Z,24.70
2022-12-26T11:58:08.255Z,21.52
2022-12-26T12:01:02.641Z,18.73
2022-12-26T12:03:48.812Z,25.67
2022-12-26T12:06:26.838Z,17.90
2022-12-26T12:09:28.474Z,20.73
2022-12-26T12:12:25.705Z,20.45
2022-12-26T12:15:01.469Z,19.55
2022-12-26T12:17:58.936Z,18.30
2022-12-26T12:20:50.256Z,20.35
2022-12-26T12:23:46.746Z,19.30
2022-12-26T12:26:34.178Z,17.40
2022-12-26T12:29:12.902Z,20.35
2022-12-26T12:32:01.389Z,17.23
2022-12-26T12:35:00.928Z,19.80
2022-12-26T12:37:54.296Z,21.58
2022-12-26T12:40:40.984Z,18.83
2022-12-26T12:43:22.572Z,20.10
2022-12-26T12:46:09.445Z,16.30
2022-12-26T12:48:42.040Z,11.80
2022-12-26T12:51:11.734Z,12.73
2022-12-26T12:53:59.455Z,12.75
2022-12-26T12:56:50.792Z,12.57
2022-12-26T12:59:42.911Z,16.40
2022-12-26T13:02:25.372Z,16.27
2022-12-26T13:05:04.309Z,19.00
2022-12-26T13:07:45.138Z,18.60
2022-12-26T13:10:27.199Z,17.83
2022-12-26T13:12:55.412Z,17.98
2022-12-26T13:15:34.989Z,18.75
2022-12-26T13:18:10.737Z,19.45
2022-12-26T13:20:45.785Z,18.17
2022-12-26T13:26:11.469Z,17.02
2022-12-26T13:28:54.111Z,14.52
2022-12-26T13:31:22.036Z,14.57
2022-12-26T13:33:49.240Z,13.45
2022-12-26T13:36:36.050Z,13.80
2022-12-26T13:39:22.894Z,12.73
2022-12-26T13:42:28.180Z,14.45
2022-12-26T13:44:55.083Z,15.23
2022-12-26T13:47:36.377Z,13.35
2022-12-26T13:50:40.839Z,14.85
2022-12-26T13:53:30.288Z,15.18
2022-12-26T13:56:24.463Z,14.85
2022-12-26T13:59:09.683Z,16.45
2022-12-26T14:01:43.055Z,18.05
2022-12-26T14:04:36.975Z,17.13
2022-12-26T14:07:18.768Z,20.27
2022-12-26T14:09:58.405Z,16.73
2022-12-26T14:12:40.185Z,19.50
2022-12-26T14:15:18.437Z,14.82
2022-12-26T14:18:12.332Z,14.10
2022-12-26T14:21:01.331Z,13.48
2022-12-26T14:23:53.179Z,9.32
2022-12-26T14:26:33.034Z,6.82
2022-12-26T14:29:23.755Z,5.45
2022-12-26T14:32:09.471Z,4.63
2022-12-26T14:35:07.679Z,11.43
2022-12-26T14:37:55.565Z,6.22
2022-12-26T14:40:38.520Z,9.50
2022-12-26T14:43:17.561Z,9.40
2022-12-26T14:45:52.766Z,7.30
2022-12-26T14:48:19.444Z,9.05
2022-12-26T14:50:47.571Z,10.80
2022-12-26T14:53:27.556Z,9.90
2022-12-26T14:56:31.310Z,10.55
2022-12-26T14:59:19.810Z,10.00
2022-12-26T15:01:49.655Z,12.13
2022-12-26T15:04:47.561Z,20.33
2022-12-26T15:07:35.388Z,18.83
2022-12-26T15:10:23.690Z,13.13
2022-12-26T15:13:15.221Z,13.38
2022-12-26T15:16:06.074Z,11.35
2022-12-26T15:18:44.701Z,20.33
2022-12-26T15:21:55.214Z,12.48
2022-12-26T15:25:22.363Z,12.45
2022-12-26T15:27:59.198Z,8.32
2022-12-26T15:31:05.430Z,12.85
2022-12-26T15:33:40.640Z,11.48
2022-12-26T15:36:38.185Z,19.60
2022-12-26T15:39:21.336Z,15.55
2022-12-26T15:41:48.088Z,15.38
2022-12-26T15:44:43.983Z,14.48
2022-12-26T15:47:28.502Z,30.25
2022-12-26T15:50:15.523Z,10.27
2022-12-26T15:53:09.775Z,15.25
2022-12-26T15:56:07.317Z,14.70
2022-12-26T15:59:16.168Z,11.63
2022-12-26T16:01:48.692Z,20.33
2022-12-26T16:04:27.003Z,14.10
2022-12-26T16:07:27.535Z,9.73
2022-12-26T16:09:56.132Z,15.93
2022-12-26T16:12:28.351Z,12.38
2022-12-26T16:15:10.458Z,10.02
2022-12-26T16:17:38.691Z,5.40
2022-12-26T16:20:39.055Z,9.65
2022-12-26T16:23:06.445Z,10.23
2022-12-26T16:25:37.689Z,7.20
2022-12-26T16:28:05.284Z,11.20
2022-12-26T16:30:36.866Z,8.15
2022-12-26T16:33:05.237Z,13.63
2022-12-26T16:35:38.619Z,9.77
2022-12-26T16:38:11.345Z,11.05
2022-12-26T16:40:47.555Z,10.30
2022-12-26T16:43:24.558Z,9.88
2022-12-26T16:45:54.088Z,8.35
2022-12-26T16:48:23.118Z,9.35
2022-12-26T16:50:56.985Z,11.65
2022-12-26T16:53:41.659Z,12.38
2022-12-26T16:56:24.671Z,14.70
2022-12-26T16:59:05.789Z,13.63
2022-12-26T17:01:34.417Z,11.98
2022-12-26T17:04:06.137Z,10.73
2022-12-26T17:06:37.100Z,7.60
2022-12-26T17:09:16.832Z,11.88
2022-12-26T17:11:56.774Z,6.07
2022-12-26T17:14:42.714Z,16.15
2022-12-26T17:17:21.777Z,10.75
2022-12-26T17:19:53.889Z,13.32
2022-12-26T17:22:37.115Z,8.23
2022-12-26T17:25:24.381Z,8.73
2022-12-26T17:28:12.340Z,13.25
2022-12-26T17:30:45.247Z,14.82
2022-12-26T17:33:16.563Z,12.60
2022-12-26T17:36:44.714Z,19.75
2022-12-26T17:38:38.011Z,14.32
2022-12-26T17:41:08.140Z,13.38
2022-12-26T17:43:37.857Z,16.48
2022-12-26T17:46:06.750Z,16.45
2022-12-26T17:48:34.360Z,16.75
2022-12-26T17:51:04.575Z,17.38
2022-12-26T17:53:34.067Z,11.57
2022-12-26T17:56:22.862Z,10.45
2022-12-26T17:58:50.333Z,12.57
2022-12-26T18:01:21.572Z,11.82
2022-12-26T18:03:49.733Z,15.25
2022-12-26T18:06:17.239Z,21.00
2022-12-26T18:08:45.047Z,17.17
2022-12-26T18:11:13.850Z,9.48
2022-12-26T18:13:41.319Z,12.55
2022-12-26T18:16:11.063Z,14.73
2022-12-26T18:18:40.086Z,17.58
2022-12-26T18:21:09.696Z,14.25
2022-12-26T18:23:37.177Z,17.17
2022-12-26T18:26:08.070Z,9.63
2022-12-26T18:28:35.215Z,14.88
2022-12-26T18:31:02.481Z,17.85
2022-12-26T18:33:29.148Z,6.20
2022-12-26T18:35:56.122Z,13.95
2022-12-26T18:38:22.772Z,16.85
2022-12-26T18:40:57.663Z,13.57
2022-12-26T18:43:24.371Z,12.75
2022-12-26T18:45:51.525Z,17.13
2022-12-26T18:48:19.963Z,12.13
2022-12-26T18:50:46.800Z,19.23
2022-12-26T18:53:13.397Z,11.27
2022-12-26T18:55:40.471Z,11.20
2022-12-26T18:58:07.129Z,11.95
2022-12-26T19:00:34.426Z,11.18
2022-12-26T19:03:01.051Z,16.52
2022-12-26T19:05:31.182Z,16.23
2022-12-26T19:07:58.618Z,14.27
2022-12-26T19:10:28.410Z,11.85
2022-12-26T19:13:02.854Z,15.38
2022-12-26T19:15:33.183Z,10.38
2022-12-26T19:18:00.067Z,27.17
2022-12-26T19:20:27.539Z,14.63
2022-12-26T19:22:54.893Z,14.50
2022-12-26T19:25:23.685Z,12.10
2022-12-26T19:27:51.126Z,8.50
2022-12-26T19:30:19.001Z,10.38
2022-12-26T19:32:46.045Z,20.90
2022-12-26T19:35:13.976Z,10.15
2022-12-26T19:37:41.074Z,10.95
2022-12-26T19:40:09.341Z,14.35
2022-12-26T19:42:37.531Z,10.77
2022-12-26T19:45:05.716Z,12.05
2022-12-26T19:47:34.012Z,8.13
2022-12-26T19:50:01.551Z,10.77
2022-12-26T19:52:28.198Z,15.90
2022-12-26T19:54:54.860Z,10.75
2022-12-26T19:57:23.210Z,15.57
2022-12-26T19:59:50.649Z,10.45
2022-12-26T20:02:17.856Z,14.80
2022-12-26T20:04:44.748Z,14.48
2022-12-26T20:07:11.426Z,19.15
2022-12-26T20:09:38.139Z,13.10
2022-12-26T20:12:04.940Z,16.52
2022-12-26T20:14:32.527Z,12.27
2022-12-26T20:17:08.802Z,15.13
2022-12-26T20:19:36.218Z,18.58
2022-12-26T20:22:03.189Z,16.35
2022-12-26T20:24:29.815Z,16.65
2022-12-26T20:26:56.522Z,16.65
2022-12-26T20:29:23.207Z,14.45
2022-12-26T20:31:50.740Z,18.95
2022-12-26T20:34:19.041Z,14.45
2022-12-26T20:36:45.645Z,16.30
2022-12-26T20:39:15.757Z,12.55
2022-12-26T20:41:42.509Z,13.73
2022-12-26T20:44:12.103Z,18.35
2022-12-26T20:46:40.846Z,15.18
2022-12-26T20:49:07.483Z,15.73
2022-12-26T20:51:37.698Z,14.20
2022-12-26T20:54:06.777Z,9.55
2022-12-26T20:56:34.224Z,18.40
2022-12-26T20:59:00.894Z,19.70
2022-12-26T21:01:28.227Z,24.00
2022-12-26T21:03:56.464Z,12.63
2022-12-26T21:06:30.194Z,13.98
2022-12-26T21:08:57.640Z,12.95
2022-12-26T21:11:27.262Z,12.07
2022-12-26T21:14:03.158Z,14.88
2022-12-26T21:16:32.990Z,12.93
2022-12-26T21:19:00.241Z,16.55
2022-12-26T21:21:30.140Z,17.17
2022-12-26T21:24:05.785Z,16.58
2022-12-26T21:26:34.611Z,12.70
2022-12-26T21:29:03.990Z,19.70
2022-12-26T21:31:31.863Z,14.40
2022-12-26T21:34:00.100Z,21.00
2022-12-26T21:36:27.948Z,14.70
2022-12-26T21:38:57.027Z,17.00
2022-12-26T21:41:24.399Z,16.63
2022-12-26T21:43:53.177Z,23.02
2022-12-26T21:46:20.547Z,14.57
2022-12-26T21:48:47.691Z,22.60
2022-12-26T21:51:15.719Z,16.20
2022-12-26T21:53:43.184Z,18.70
2022-12-26T21:56:11.934Z,23.40
2022-12-26T21:58:57.497Z,20.48
2022-12-26T22:01:25.727Z,22.67
2022-12-26T22:04:11.700Z,19.30
2022-12-26T22:06:38.731Z,25.85
2022-12-26T22:09:06.410Z,26.45
2022-12-26T22:11:52.451Z,35.63
2022-12-26T22:14:19.239Z,24.77
2022-12-26T22:16:45.927Z,26.90
2022-12-26T22:19:12.661Z,31.00
2022-12-26T22:21:39.886Z,24.45
2022-12-26T22:24:06.810Z,21.90
2022-12-26T22:26:33.512Z,24.27
2022-12-26T22:29:00.178Z,17.45
2022-12-26T22:31:31.406Z,18.67
2022-12-26T22:33:59.373Z,12.75
2022-12-26T22:36:27.835Z,21.42
2022-12-26T22:38:55.059Z,22.38
2022-12-26T22:41:21.936Z,11.13
2022-12-26T22:43:48.594Z,14.63
2022-12-26T22:46:15.682Z,15.15
2022-12-26T22:48:42.472Z,18.63
2022-12-26T22:51:15.459Z,15.07
2022-12-26T22:53:42.255Z,27.20
2022-12-26T22:56:11.285Z,29.25
2022-12-26T22:58:38.147Z,16.35
2022-12-26T23:01:15.715Z,10.88
2022-12-26T23:03:42.653Z,14.48
2022-12-26T23:06:30.421Z,21.80
2022-12-26T23:09:00.272Z,17.00
2022-12-26T23:11:34.288Z,17.33
2022-12-26T23:14:02.982Z,16.58
2022-12-26T23:16:42.144Z,14.93
2022-12-26T23:20:06.953Z,13.75
2022-12-26T23:22:34.102Z,16.40
2022-12-26T23:25:00.882Z,14.48
2022-12-26T23:27:46.999Z,13.23
2022-12-26T23:30:20.250Z,11.65
2022-12-26T23:32:50.337Z,15.55
2022-12-26T23:35:17.900Z,17.55
2022-12-26T23:37:44.837Z,12.80
2022-12-26T23:40:13.305Z,17.25
2022-12-26T23:42:40.022Z,13.98
2022-12-26T23:45:07.924Z,24.75
2022-12-26T23:47:39.223Z,14.95
2022-12-26T23:50:08.111Z,13.68
2022-12-26T23:52:35.157Z,16.65
2022-12-26T23:55:01.866Z,14.02
2022-12-26T23:57:28.528Z,16.23
2022-12-26T23:59:55.228Z,14.20
